createdAt,value
2019-05-09T00:01:14.419Z,16.10
2019-05-09T00:03:44.267Z,16.80
2019-05-09T00:06:13.761Z,18.00
2019-05-09T00:08:44.175Z,18.52
2019-05-09T00:11:14.494Z,22.40
2019-05-09T00:13:43.954Z,19.10
2019-05-09T00:16:14.512Z,27.48
2019-05-09T00:18:44.093Z,24.67
2019-05-09T00:21:14.630Z,25.08
2019-05-09T00:23:43.819Z,30.32
2019-05-09T00:26:13.376Z,28.83
2019-05-09T00:28:44.243Z,33.10
2019-05-09T00:31:20.668Z,30.40
2019-05-09T00:33:52.966Z,30.55
2019-05-09T00:36:23.215Z,29.43
2019-05-09T00:38:53.651Z,27.35
2019-05-09T00:41:23.886Z,28.95
2019-05-09T00:43:54.366Z,25.77
2019-05-09T00:46:24.745Z,26.23
2019-05-09T00:49:01.317Z,25.60
2019-05-09T00:51:30.091Z,28.47
2019-05-09T00:53:58.768Z,22.27
2019-05-09T00:56:27.578Z,24.40
2019-05-09T00:58:56.486Z,26.65
2019-05-09T01:01:25.091Z,27.27
2019-05-09T01:03:54.071Z,27.07
2019-05-09T01:06:23.924Z,24.00
2019-05-09T01:08:53.597Z,22.65
2019-05-09T01:11:24.366Z,23.05
2019-05-09T01:13:54.286Z,22.02
2019-05-09T01:16:24.184Z,22.67
2019-05-09T01:18:54.419Z,27.02
2019-05-09T01:21:24.048Z,21.15
2019-05-09T01:23:53.897Z,22.62
2019-05-09T01:26:24.071Z,24.25
2019-05-09T01:28:54.210Z,24.72
2019-05-09T01:31:23.997Z,29.15
2019-05-09T01:34:00.986Z,21.23
2019-05-09T01:36:48.003Z,20.12
2019-05-09T01:39:16.792Z,18.62
2019-05-09T01:41:45.558Z,20.57
2019-05-09T01:44:14.578Z,17.52
2019-05-09T01:46:43.699Z,20.52
2019-05-09T01:49:13.813Z,21.33
2019-05-09T01:51:44.455Z,17.95
2019-05-09T01:54:14.408Z,19.62
2019-05-09T01:56:43.220Z,18.62
2019-05-09T01:59:13.641Z,17.00
2019-05-09T02:01:43.428Z,17.75
2019-05-09T02:04:13.707Z,16.23
2019-05-09T02:06:44.040Z,14.50
2019-05-09T02:09:14.056Z,16.27
2019-05-09T02:11:45.544Z,16.77
2019-05-09T02:14:15.172Z,12.35
2019-05-09T02:17:07.511Z,18.57
2019-05-09T02:19:44.029Z,12.40
2019-05-09T02:22:30.905Z,13.72
2019-05-09T02:24:59.684Z,12.60
2019-05-09T02:27:28.578Z,10.80
2019-05-09T02:29:57.585Z,13.00
2019-05-09T02:32:26.370Z,14.73
2019-05-09T02:34:55.145Z,18.32
2019-05-09T02:37:23.875Z,12.90
2019-05-09T02:39:52.615Z,14.30
2019-05-09T02:42:21.300Z,13.95
2019-05-09T02:44:50.504Z,13.95
2019-05-09T02:47:20.804Z,12.23
2019-05-09T02:49:49.787Z,11.20
2019-05-09T02:52:19.851Z,10.90
2019-05-09T02:54:50.095Z,11.57
2019-05-09T02:57:19.300Z,10.32
2019-05-09T02:59:59.331Z,13.25
2019-05-09T03:02:33.451Z,13.20
2019-05-09T03:05:02.205Z,15.58
2019-05-09T03:07:48.903Z,13.00
2019-05-09T03:10:19.368Z,12.95
2019-05-09T03:12:50.074Z,14.33
2019-05-09T03:15:19.022Z,11.25
2019-05-09T03:17:49.448Z,11.10
2019-05-09T03:20:20.262Z,10.50
2019-05-09T03:22:49.182Z,11.40
2019-05-09T03:25:19.140Z,12.37
2019-05-09T03:28:04.489Z,13.80
2019-05-09T03:30:43.811Z,11.65
2019-05-09T03:33:12.703Z,14.28
2019-05-09T03:35:41.287Z,11.20
2019-05-09T03:38:10.190Z,12.85
2019-05-09T03:40:39.246Z,10.72
2019-05-09T03:43:08.237Z,13.75
2019-05-09T03:45:38.820Z,12.75
2019-05-09T03:48:15.047Z,13.18
2019-05-09T03:50:43.651Z,11.22
2019-05-09T03:53:12.313Z,12.65
2019-05-09T03:55:40.888Z,12.20
2019-05-09T03:58:14.224Z,12.35
2019-05-09T04:00:42.819Z,16.05
2019-05-09T04:03:11.515Z,11.83
2019-05-09T04:05:40.115Z,11.43
2019-05-09T04:08:22.060Z,12.40
2019-05-09T04:10:52.411Z,12.18
2019-05-09T04:13:23.616Z,13.30
2019-05-09T04:15:52.299Z,11.95
2019-05-09T04:18:21.517Z,12.78
2019-05-09T04:20:50.216Z,11.03
2019-05-09T04:23:18.843Z,12.60
2019-05-09T04:25:49.465Z,10.23
2019-05-09T04:28:18.052Z,10.95
2019-05-09T04:30:47.786Z,11.05
2019-05-09T04:33:17.715Z,12.43
2019-05-09T04:35:47.547Z,11.10
2019-05-09T04:38:17.930Z,11.25
2019-05-09T04:40:48.776Z,11.70
2019-05-09T04:43:26.684Z,12.20
2019-05-09T04:45:53.427Z,12.85
2019-05-09T04:48:37.679Z,16.05
2019-05-09T04:51:07.918Z,14.87
2019-05-09T04:53:39.602Z,18.55
2019-05-09T04:56:11.651Z,13.48
2019-05-09T04:58:40.263Z,14.10
2019-05-09T05:01:22.650Z,11.95
2019-05-09T05:03:53.332Z,11.85
2019-05-09T05:06:22.311Z,11.68
2019-05-09T05:08:51.313Z,16.60
2019-05-09T05:11:20.371Z,12.20
2019-05-09T05:13:49.508Z,14.85
2019-05-09T05:16:18.506Z,11.93
2019-05-09T05:18:47.776Z,11.73
2019-05-09T05:21:20.037Z,10.15
2019-05-09T05:23:48.699Z,10.45
2019-05-09T05:26:18.768Z,11.08
2019-05-09T05:28:47.543Z,11.83
2019-05-09T05:31:18.054Z,12.53
2019-05-09T05:34:04.799Z,11.12
2019-05-09T05:36:33.392Z,11.08
2019-05-09T05:39:01.995Z,10.23
2019-05-09T05:41:30.620Z,9.78
2019-05-09T05:43:59.243Z,12.10
2019-05-09T05:46:31.452Z,12.63
2019-05-09T05:49:00.159Z,8.60
2019-05-09T05:51:30.654Z,12.03
2019-05-09T05:54:01.393Z,10.32
2019-05-09T05:56:29.588Z,13.90
2019-05-09T05:58:58.225Z,8.43
2019-05-09T06:01:27.933Z,6.60
2019-05-09T06:03:58.625Z,7.05
2019-05-09T06:06:27.939Z,11.70
2019-05-09T06:08:57.907Z,6.70
2019-05-09T06:11:28.084Z,7.12
2019-05-09T06:14:05.248Z,5.45
2019-05-09T06:16:28.834Z,8.98
2019-05-09T06:18:58.548Z,7.80
2019-05-09T06:21:28.828Z,6.97
2019-05-09T06:23:58.417Z,9.53
2019-05-09T06:26:29.134Z,5.87
2019-05-09T06:28:58.073Z,6.12
2019-05-09T06:31:28.448Z,6.42
2019-05-09T06:33:57.816Z,6.35
2019-05-09T06:36:28.353Z,7.70
2019-05-09T06:38:58.839Z,11.38
2019-05-09T06:41:28.767Z,7.62
2019-05-09T06:44:13.167Z,6.22
2019-05-09T06:46:37.842Z,7.00
2019-05-09T06:49:24.278Z,7.05
2019-05-09T06:51:45.005Z,10.25
2019-05-09T06:54:13.751Z,6.20
2019-05-09T06:56:42.836Z,7.33
2019-05-09T06:59:11.492Z,7.75
2019-05-09T07:01:44.799Z,4.05
2019-05-09T07:04:21.331Z,5.92
2019-05-09T07:06:51.573Z,5.28
2019-05-09T07:09:28.157Z,7.22
2019-05-09T07:11:58.591Z,4.60
2019-05-09T07:14:38.203Z,6.72
2019-05-09T07:17:12.158Z,5.42
2019-05-09T07:19:43.755Z,4.47
2019-05-09T07:22:18.661Z,6.67
2019-05-09T07:25:07.702Z,8.53
2019-05-09T07:27:35.713Z,5.75
2019-05-09T07:30:24.349Z,7.03
2019-05-09T07:32:54.969Z,5.37
2019-05-09T07:35:23.667Z,11.90
2019-05-09T07:37:52.254Z,5.42
2019-05-09T07:40:20.884Z,7.28
2019-05-09T07:42:49.604Z,7.22
2019-05-09T07:45:18.475Z,8.85
2019-05-09T07:47:47.985Z,5.62
2019-05-09T07:50:23.476Z,4.95
2019-05-09T07:52:52.110Z,6.85
2019-05-09T07:55:20.865Z,12.03
2019-05-09T07:57:54.897Z,10.18
2019-05-09T08:00:34.198Z,6.40
2019-05-09T08:05:39.400Z,5.92
2019-05-09T08:08:11.063Z,8.18
2019-05-09T08:10:39.691Z,7.97
2019-05-09T08:13:18.252Z,5.67
2019-05-09T08:15:47.738Z,5.08
2019-05-09T08:18:17.487Z,8.08
2019-05-09T08:20:47.885Z,4.10
2019-05-09T08:23:18.058Z,8.78
2019-05-09T08:25:48.473Z,5.60
2019-05-09T08:28:17.672Z,5.80
2019-05-09T08:30:48.430Z,8.23
2019-05-09T08:33:18.439Z,6.45
2019-05-09T08:35:52.134Z,4.87
2019-05-09T08:38:18.064Z,10.68
2019-05-09T08:40:48.595Z,10.88
2019-05-09T08:43:19.516Z,7.92
2019-05-09T08:45:48.475Z,6.72
2019-05-09T08:48:18.419Z,7.28
2019-05-09T08:50:48.776Z,6.05
2019-05-09T08:53:18.867Z,6.30
2019-05-09T08:55:47.619Z,9.30
2019-05-09T08:58:19.299Z,6.95
2019-05-09T09:00:49.097Z,13.00
2019-05-09T09:03:18.471Z,7.17
2019-05-09T09:05:48.617Z,6.90
2019-05-09T09:08:18.298Z,7.65
2019-05-09T09:10:48.856Z,7.20
2019-05-09T09:13:17.904Z,9.85
2019-05-09T09:16:04.881Z,11.33
2019-05-09T09:18:17.903Z,7.30
2019-05-09T09:20:48.558Z,9.68
2019-05-09T09:23:39.105Z,10.13
2019-05-09T09:25:54.889Z,6.78
2019-05-09T09:28:23.935Z,10.68
2019-05-09T09:30:52.679Z,8.08
2019-05-09T09:33:21.368Z,8.83
2019-05-09T09:35:50.412Z,8.40
2019-05-09T09:38:19.363Z,9.78
2019-05-09T09:40:48.127Z,9.43
2019-05-09T09:43:17.600Z,8.75
2019-05-09T09:45:48.070Z,7.25
2019-05-09T09:48:18.100Z,9.43
2019-05-09T09:50:51.447Z,9.85
2019-05-09T09:53:18.456Z,10.08
2019-05-09T09:55:47.812Z,9.40
2019-05-09T09:58:18.933Z,10.48
2019-05-09T10:00:51.143Z,11.30
2019-05-09T10:03:20.111Z,9.18
2019-05-09T10:05:51.155Z,12.70
2019-05-09T10:08:19.899Z,10.70
2019-05-09T10:10:49.062Z,10.32
2019-05-09T10:13:18.650Z,8.23
2019-05-09T10:16:25.458Z,11.97
2019-05-09T10:18:44.944Z,12.58
2019-05-09T10:21:18.186Z,10.80
2019-05-09T10:23:48.344Z,8.13
2019-05-09T10:26:17.812Z,10.28
2019-05-09T10:28:48.542Z,10.63
2019-05-09T10:31:17.428Z,15.93
2019-05-09T10:33:48.034Z,8.78
2019-05-09T10:36:16.410Z,9.68
2019-05-09T10:38:47.638Z,10.32
2019-05-09T10:41:15.381Z,11.40
2019-05-09T10:44:09.976Z,7.83
2019-05-09T10:46:52.479Z,8.00
2019-05-09T10:49:14.603Z,10.40
2019-05-09T10:51:43.311Z,9.30
2019-05-09T10:54:15.315Z,12.20
2019-05-09T10:56:43.971Z,10.23
2019-05-09T10:59:18.293Z,10.05
2019-05-09T11:01:49.682Z,7.12
2019-05-09T11:04:18.087Z,9.95
2019-05-09T11:06:47.223Z,7.33
2019-05-09T11:09:18.029Z,8.25
2019-05-09T11:11:48.166Z,9.55
2019-05-09T11:14:32.821Z,8.80
2019-05-09T11:17:06.401Z,7.15
2019-05-09T11:19:20.626Z,7.95
2019-05-09T11:21:49.218Z,10.48
2019-05-09T11:24:18.726Z,7.95
2019-05-09T11:26:48.177Z,9.10
2019-05-09T11:29:18.766Z,10.08
2019-05-09T11:31:47.787Z,7.35
2019-05-09T11:34:18.894Z,7.67
2019-05-09T11:36:49.637Z,7.70
2019-05-09T11:39:35.176Z,8.70
2019-05-09T11:41:48.779Z,7.53
2019-05-09T11:44:18.450Z,6.50
2019-05-09T11:46:47.722Z,8.88
2019-05-09T11:49:17.934Z,5.70
2019-05-09T11:51:48.264Z,5.60
2019-05-09T11:54:19.353Z,9.63
2019-05-09T11:56:48.196Z,8.28
2019-05-09T11:59:18.888Z,5.85
2019-05-09T12:01:48.217Z,8.65
2019-05-09T12:04:18.715Z,11.38
2019-05-09T12:06:49.339Z,8.33
2019-05-09T12:09:17.818Z,11.38
2019-05-09T12:11:48.282Z,10.38
2019-05-09T12:14:16.776Z,9.38
2019-05-09T12:16:47.827Z,8.78
2019-05-09T12:19:18.001Z,7.45
2019-05-09T12:21:48.049Z,7.42
2019-05-09T12:24:18.366Z,9.83
2019-05-09T12:26:48.213Z,14.53
2019-05-09T12:29:19.300Z,7.37
2019-05-09T12:31:48.555Z,8.75
2019-05-09T12:34:19.398Z,8.98
2019-05-09T12:36:49.287Z,7.85
2019-05-09T12:39:18.838Z,7.25
2019-05-09T12:41:48.459Z,9.70
2019-05-09T12:44:18.203Z,8.35
2019-05-09T12:46:48.980Z,10.15
2019-05-09T12:49:18.917Z,9.70
2019-05-09T12:51:47.847Z,10.85
2019-05-09T12:54:18.959Z,9.53
2019-05-09T12:56:48.573Z,9.70
2019-05-09T12:59:18.697Z,8.70
2019-05-09T13:01:49.185Z,12.73
2019-05-09T13:04:18.151Z,10.60
2019-05-09T13:06:48.809Z,10.98
2019-05-09T13:09:17.813Z,9.73
2019-05-09T13:11:48.294Z,9.65
2019-05-09T13:14:19.255Z,8.48
2019-05-09T13:17:04.211Z,12.05
2019-05-09T13:19:38.235Z,10.55
2019-05-09T13:22:08.094Z,12.78
2019-05-09T13:24:37.855Z,8.88
2019-05-09T13:27:07.941Z,8.93
2019-05-09T13:29:38.049Z,10.28
2019-05-09T13:32:08.854Z,9.63
2019-05-09T13:34:38.060Z,10.80
2019-05-09T13:37:09.110Z,9.95
2019-05-09T13:39:39.465Z,9.85
2019-05-09T13:42:08.164Z,9.05
2019-05-09T13:44:41.223Z,9.75
2019-05-09T13:47:10.675Z,7.37
2019-05-09T13:49:39.496Z,6.72
2019-05-09T13:52:10.186Z,9.93
2019-05-09T13:54:38.602Z,8.83
2019-05-09T13:57:08.629Z,7.08
2019-05-09T13:59:37.576Z,7.72
2019-05-09T14:02:06.401Z,6.80
2019-05-09T14:04:34.991Z,6.92
2019-05-09T14:07:04.228Z,7.90
2019-05-09T14:09:33.595Z,11.43
2019-05-09T14:12:02.368Z,7.17
2019-05-09T14:14:31.299Z,9.08
2019-05-09T14:17:00.291Z,8.68
2019-05-09T14:19:39.599Z,6.80
2019-05-09T14:21:59.284Z,7.72
2019-05-09T14:24:28.045Z,8.45
2019-05-09T14:26:58.216Z,9.55
2019-05-09T14:29:31.509Z,10.20
2019-05-09T14:31:57.335Z,7.05
2019-05-09T14:34:29.812Z,8.98
2019-05-09T14:36:58.587Z,8.38
2019-05-09T14:39:27.766Z,9.13
2019-05-09T14:41:57.842Z,7.83
2019-05-09T14:44:27.701Z,8.80
2019-05-09T14:46:58.406Z,11.97
2019-05-09T14:49:39.829Z,7.20
2019-05-09T14:51:58.019Z,10.25
2019-05-09T14:54:28.833Z,9.05
2019-05-09T14:56:58.381Z,6.87
2019-05-09T14:59:28.570Z,7.47
2019-05-09T15:01:59.115Z,8.80
2019-05-09T15:04:27.920Z,9.20
2019-05-09T15:06:57.873Z,8.80
2019-05-09T15:09:28.454Z,8.13
2019-05-09T15:11:58.525Z,8.63
2019-05-09T15:14:28.918Z,9.88
2019-05-09T15:16:57.710Z,7.53
2019-05-09T15:19:28.779Z,8.00
2019-05-09T15:22:00.377Z,9.40
2019-05-09T15:24:28.695Z,8.05
2019-05-09T15:26:58.092Z,9.33
2019-05-09T15:29:28.980Z,12.50
2019-05-09T15:32:04.447Z,7.90
2019-05-09T15:34:28.582Z,7.12
2019-05-09T15:36:58.320Z,8.70
2019-05-09T15:39:27.728Z,7.83
2019-05-09T15:41:58.050Z,11.10
2019-05-09T15:44:26.843Z,9.13
2019-05-09T15:47:03.021Z,8.80
2019-05-09T15:49:31.621Z,10.78
2019-05-09T15:52:00.337Z,12.15
2019-05-09T15:54:29.539Z,4.72
2019-05-09T15:56:58.540Z,5.28
2019-05-09T15:59:28.103Z,7.60
2019-05-09T16:01:58.526Z,10.08
2019-05-09T16:04:28.055Z,6.65
2019-05-09T16:06:57.278Z,9.00
2019-05-09T16:09:28.549Z,4.55
2019-05-09T16:11:56.855Z,5.25
2019-05-09T16:14:27.520Z,7.00
2019-05-09T16:16:56.064Z,6.80
2019-05-09T16:19:24.994Z,7.45
2019-05-09T16:21:53.944Z,7.75
2019-05-09T16:24:23.039Z,9.65
2019-05-09T16:26:51.671Z,6.67
2019-05-09T16:29:20.266Z,9.05
2019-05-09T16:31:48.898Z,6.90
2019-05-09T16:34:18.005Z,8.40
2019-05-09T16:36:47.977Z,9.43
2019-05-09T16:39:17.915Z,7.37
2019-05-09T16:41:48.415Z,7.03
2019-05-09T16:44:18.429Z,6.65
2019-05-09T16:46:48.500Z,6.70
2019-05-09T16:49:20.047Z,6.30
2019-05-09T16:51:48.723Z,6.15
2019-05-09T16:54:18.155Z,7.55
2019-05-09T16:56:46.939Z,6.53
2019-05-09T16:59:17.854Z,4.33
2019-05-09T17:01:49.763Z,4.12
2019-05-09T17:04:19.140Z,4.35
2019-05-09T17:06:49.504Z,5.97
2019-05-09T17:09:18.202Z,4.10
2019-05-09T17:11:48.065Z,4.75
2019-05-09T17:14:18.934Z,6.45
2019-05-09T17:16:48.260Z,6.45
2019-05-09T17:19:19.570Z,4.12
2019-05-09T17:21:49.878Z,4.90
2019-05-09T17:24:20.158Z,6.25
2019-05-09T17:26:49.028Z,5.00
2019-05-09T17:29:18.442Z,5.80
2019-05-09T17:31:48.820Z,4.55
2019-05-09T17:34:18.248Z,5.97
2019-05-09T17:36:47.003Z,6.60
2019-05-09T17:39:18.406Z,8.08
2019-05-09T17:41:46.102Z,6.12
2019-05-09T17:44:15.052Z,12.73
2019-05-09T17:46:43.674Z,7.33
2019-05-09T17:49:12.340Z,5.17
2019-05-09T17:51:41.037Z,6.72
2019-05-09T17:54:09.843Z,6.17
2019-05-09T17:56:38.604Z,9.85
2019-05-09T17:59:08.501Z,5.83
2019-05-09T18:01:37.784Z,8.68
2019-05-09T18:04:08.931Z,8.20
2019-05-09T18:06:37.894Z,6.65
2019-05-09T18:09:08.407Z,10.48
2019-05-09T18:11:37.962Z,7.15
2019-05-09T18:14:08.053Z,8.60
2019-05-09T18:16:39.027Z,12.40
2019-05-09T18:19:08.370Z,9.83
2019-05-09T18:21:50.392Z,7.92
2019-05-09T18:24:08.897Z,9.43
2019-05-09T18:26:38.410Z,9.38
2019-05-09T18:29:07.229Z,6.60
2019-05-09T18:31:37.565Z,7.25
2019-05-09T18:34:07.786Z,7.95
2019-05-09T18:36:38.241Z,6.83
2019-05-09T18:39:07.714Z,8.00
2019-05-09T18:41:36.738Z,8.13
2019-05-09T18:44:07.513Z,7.70
2019-05-09T18:46:37.493Z,8.53
2019-05-09T18:49:06.193Z,4.92
2019-05-09T18:51:35.403Z,3.47
2019-05-09T18:54:04.035Z,5.65
2019-05-09T18:56:32.698Z,5.70
2019-05-09T18:59:01.393Z,3.80
2019-05-09T19:01:30.251Z,6.30
2019-05-09T19:03:58.943Z,4.58
2019-05-09T19:06:27.581Z,5.28
2019-05-09T19:08:56.213Z,5.25
2019-05-09T19:11:25.307Z,6.28
2019-05-09T19:13:54.687Z,5.33
2019-05-09T19:16:33.091Z,4.60
2019-05-09T19:19:03.810Z,7.20
2019-05-09T19:21:34.551Z,7.78
2019-05-09T19:24:03.504Z,6.70
2019-05-09T19:26:38.401Z,5.83
2019-05-09T19:29:08.368Z,3.95
2019-05-09T19:31:37.529Z,9.85
2019-05-09T19:34:06.745Z,4.53
2019-05-09T19:36:35.768Z,4.10
2019-05-09T19:39:07.124Z,7.40
2019-05-09T19:41:36.759Z,4.72
2019-05-09T19:44:05.522Z,5.87
2019-05-09T19:46:34.192Z,6.70
2019-05-09T19:49:03.059Z,4.85
2019-05-09T19:51:32.015Z,6.90
2019-05-09T19:54:00.672Z,5.33
2019-05-09T19:56:29.725Z,5.78
2019-05-09T19:58:58.400Z,7.40
2019-05-09T20:01:27.469Z,7.92
2019-05-09T20:03:56.151Z,6.28
2019-05-09T20:06:24.795Z,6.28
2019-05-09T20:08:53.504Z,10.68
2019-05-09T20:11:40.689Z,9.10
2019-05-09T20:14:12.128Z,9.43
2019-05-09T20:16:43.446Z,8.50
2019-05-09T20:19:12.085Z,8.03
2019-05-09T20:21:41.534Z,6.45
2019-05-09T20:24:10.126Z,6.92
2019-05-09T20:26:38.742Z,11.97
2019-05-09T20:29:07.706Z,10.65
2019-05-09T20:31:36.347Z,6.83
2019-05-09T20:34:05.471Z,12.20
2019-05-09T20:36:34.693Z,11.03
2019-05-09T20:39:04.976Z,11.80
2019-05-09T20:41:34.280Z,8.33
2019-05-09T20:44:03.647Z,8.43
2019-05-09T20:46:32.673Z,10.28
2019-05-09T20:49:01.430Z,9.13
2019-05-09T20:51:30.459Z,9.20
2019-05-09T20:53:59.651Z,12.47
2019-05-09T20:56:28.565Z,9.95
2019-05-09T20:58:57.960Z,8.75
2019-05-09T21:01:26.726Z,10.78
2019-05-09T21:04:00.318Z,9.80
2019-05-09T21:06:26.176Z,11.85
2019-05-09T21:08:54.964Z,12.00
2019-05-09T21:11:23.842Z,10.20
2019-05-09T21:13:52.731Z,10.23
2019-05-09T21:16:21.926Z,14.23
2019-05-09T21:18:50.807Z,12.93
2019-05-09T21:21:19.593Z,13.03
2019-05-09T21:23:48.803Z,19.85
2019-05-09T21:26:17.679Z,15.03
2019-05-09T21:28:46.567Z,12.50
2019-05-09T21:31:15.456Z,14.68
2019-05-09T21:33:44.375Z,12.60
2019-05-09T21:36:13.155Z,12.23
2019-05-09T21:38:42.033Z,16.60
2019-05-09T21:41:10.851Z,11.60
2019-05-09T21:43:39.608Z,13.75
2019-05-09T21:46:10.690Z,12.98
2019-05-09T21:48:40.018Z,14.15
2019-05-09T21:51:08.614Z,14.13
2019-05-09T21:53:41.066Z,15.58
2019-05-09T21:56:14.495Z,17.02
2019-05-09T21:58:43.231Z,17.20
2019-05-09T22:01:15.771Z,15.65
2019-05-09T22:03:44.593Z,18.70
2019-05-09T22:06:20.725Z,21.27
2019-05-09T22:08:49.735Z,21.50
2019-05-09T22:11:18.457Z,16.17
2019-05-09T22:13:47.359Z,15.68
2019-05-09T22:16:19.592Z,18.52
2019-05-09T22:18:48.662Z,20.75
2019-05-09T22:21:23.101Z,14.80
2019-05-09T22:23:56.267Z,18.95
2019-05-09T22:26:22.695Z,22.82
2019-05-09T22:28:51.325Z,22.50
2019-05-09T22:31:19.920Z,23.10
2019-05-09T22:33:49.039Z,26.60
2019-05-09T22:36:17.999Z,20.60
2019-05-09T22:38:46.759Z,21.25
2019-05-09T22:41:16.893Z,22.67
2019-05-09T22:43:47.283Z,21.48
2019-05-09T22:46:15.971Z,26.80
2019-05-09T22:48:44.610Z,24.72
2019-05-09T22:51:13.288Z,21.60
2019-05-09T22:53:42.003Z,23.87
2019-05-09T22:56:10.811Z,18.32
2019-05-09T22:58:40.237Z,24.45
2019-05-09T23:01:10.490Z,18.27
2019-05-09T23:03:39.226Z,20.17
2019-05-09T23:06:07.911Z,16.05
2019-05-09T23:08:36.705Z,17.60
2019-05-09T23:11:12.452Z,19.82
2019-05-09T23:13:54.179Z,17.80
2019-05-09T23:16:24.648Z,19.23
2019-05-09T23:18:53.781Z,19.90
2019-05-09T23:21:24.488Z,16.12
2019-05-09T23:23:55.203Z,14.87
2019-05-09T23:26:24.439Z,15.53
2019-05-09T23:28:53.222Z,17.37
2019-05-09T23:31:39.928Z,17.07
2019-05-09T23:34:13.291Z,20.15
2019-05-09T23:36:42.306Z,16.50
2019-05-09T23:39:24.617Z,13.28
2019-05-09T23:41:53.412Z,14.80
2019-05-09T23:44:22.530Z,12.33
2019-05-09T23:46:51.296Z,13.38
2019-05-09T23:49:20.497Z,11.45
2019-05-09T23:51:50.162Z,14.93
2019-05-09T23:54:46.404Z,16.27
2019-05-09T23:57:29.256Z,16.57
